Union, Texas
Current Conditions -  °F | °C
As of 8:15 AM on Saturday 25 Oct 2014 (Local Time) from KSNK Reporting Station
Clear Clear  
Wind Chill: 57°   Ceiling: Unl
Heat Index: 57°   Visibility: 7mi
Dew Point: 56°   Wind: 3mph
Humidity: 94%   Direction: 210°SSW
Pressure: 30.18"   Gusts: NA
Location:  33.0123°N, 100.833°W
Report Text: KSNK 251315Z AUTO 21003KT 7SM CLR 14/13 A3018 RMK AO2 T01410132
Loading
Personal Weather Stations






























Interactive Weather Map
Tropical Storm Tracking
New forecast layout! Learn more

10-Day Weather Forecast

Advertisements
Track Severe Weather on mobile